This is the latest recevied weather packets stored in our database for station/object N7WSS. If no packets are shown the sender has not sent any weather packets the latest 10 day(s).
| Time | Temp. | Humidity | Pressure | Rain* | Wind** | Luminosity | Snow |
|---|---|---|---|---|---|---|---|
| 1777746919 | 27.22° C | 30% | 1013.9 hPa | 0 mm | - | - | - |
| 1777746615 | 27.22° C | 31% | 1013.9 hPa | 0 mm | - | - | - |
| 1777746309 | 27.22° C | 31% | 1013.9 hPa | 0 mm | - | - | - |
| 1777746006 | 27.22° C | 29% | 1014.2 hPa | 0 mm | - | - | - |
| 1777745704 | 26.67° C | 32% | 1014 hPa | 0 mm | - | - | - |
| 1777745402 | 26.67° C | 31% | 1014.2 hPa | 0 mm | - | - | - |
| 1777745099 | 27.22° C | 31% | 1013.9 hPa | 0 mm | - | - | - |
| 1777744795 | 26.67° C | 31% | 1014.2 hPa | 0 mm | - | - | - |
| 1777744490 | 26.67° C | 32% | 1014.1 hPa | 0 mm | - | - | - |
| 1777744186 | 26.67° C | 31% | 1014.2 hPa | 0 mm | - | - | - |
| 1777743884 | 26.11° C | 32% | 1014.1 hPa | 0 mm | - | - | - |
| 1777743580 | 26.11° C | 33% | 1014.2 hPa | 0 mm | - | - | - |
| 1777743277 | 26.11° C | 33% | 1014.3 hPa | 0 mm | - | - | - |
| 1777742975 | 26.11° C | 33% | 1014.2 hPa | 0 mm | - | - | - |
| 1777742672 | 25.56° C | 33% | 1014.4 hPa | 0 mm | - | - | - |
| 1777742368 | 25.56° C | 34% | 1014.3 hPa | 0 mm | - | - | - |
| 1777742064 | 25.56° C | 33% | 1014.4 hPa | 0 mm | - | - | - |
| 1777741762 | 25.56° C | 34% | 1014.5 hPa | 0 mm | - | - | - |
| 1777741458 | 25.56° C | 34% | 1014.3 hPa | 0 mm | - | - | - |
| 1777741154 | 25° C | 35% | 1014.2 hPa | 0 mm | - | - | - |
| 1777740852 | 25° C | 34% | 1014.4 hPa | 0 mm | - | - | - |
| 1777740549 | 25° C | 36% | 1014.2 hPa | 0 mm | - | - | - |
| 1777740245 | 24.44° C | 35% | 1014.2 hPa | 0 mm | - | - | - |
| 1777739941 | 25° C | 35% | 1014.3 hPa | 0 mm | - | - | - |
| 1777739638 | 24.44° C | 35% | 1014.3 hPa | 0 mm | - | - | - |
* Rain latest hour (hover to see other rain measurements)
** Current wind speed in m/s (hover to see current wind gust speed)